sensor_id;sensor_type;location;lat;lon;timestamp;pressure;altitude;pressure_sealevel;temperature;humidity
5879;BME280;2965;42.640;23.370;2023-05-16T04:03:35;93891.72;;;14.46;100.00
5879;BME280;2965;42.640;23.370;2023-05-16T04:06:02;93893.13;;;14.48;100.00
5879;BME280;2965;42.640;23.370;2023-05-16T04:08:29;93900.38;;;14.53;100.00
5879;BME280;2965;42.640;23.370;2023-05-16T04:10:56;93905.41;;;14.54;100.00
5879;BME280;2965;42.640;23.370;2023-05-16T04:13:21;93914.03;;;14.61;100.00
5879;BME280;2965;42.640;23.370;2023-05-16T04:15:46;93911.16;;;14.63;100.00
5879;BME280;2965;42.640;23.370;2023-05-16T04:18:12;93912.09;;;14.69;100.00
5879;BME280;2965;42.640;23.370;2023-05-16T04:20:38;93920.00;;;14.69;100.00
5879;BME280;2965;42.640;23.370;2023-05-16T04:23:03;93926.78;;;14.76;100.00
5879;BME280;2965;42.640;23.370;2023-05-16T04:25:29;93923.41;;;14.69;100.00
5879;BME280;2965;42.640;23.370;2023-05-16T04:27:55;93913.19;;;14.79;100.00
5879;BME280;2965;42.640;23.370;2023-05-16T04:30:21;93910.19;;;14.76;100.00
5879;BME280;2965;42.640;23.370;2023-05-16T04:32:46;93906.69;;;14.63;100.00
5879;BME280;2965;42.640;23.370;2023-05-16T04:35:12;93900.44;;;14.76;100.00
5879;BME280;2965;42.640;23.370;2023-05-16T04:37:37;93900.59;;;14.81;100.00
5879;BME280;2965;42.640;23.370;2023-05-16T04:40:03;93896.78;;;14.77;100.00
5879;BME280;2965;42.640;23.370;2023-05-16T04:42:30;93904.75;;;14.89;100.00
5879;BME280;2965;42.640;23.370;2023-05-16T04:44:56;93902.34;;;14.87;100.00
5879;BME280;2965;42.640;23.370;2023-05-16T04:47:22;93909.91;;;14.96;100.00
5879;BME280;2965;42.640;23.370;2023-05-16T04:49:50;93913.56;;;14.95;100.00
5879;BME280;2965;42.640;23.370;2023-05-16T04:52:16;93920.00;;;14.99;100.00
5879;BME280;2965;42.640;23.370;2023-05-16T04:54:41;93914.16;;;14.97;100.00
5879;BME280;2965;42.640;23.370;2023-05-16T04:57:07;93915.53;;;14.99;100.00
5879;BME280;2965;42.640;23.370;2023-05-16T04:59:32;93914.09;;;14.85;100.00
5879;BME280;2965;42.640;23.370;2023-05-16T05:01:57;93904.97;;;14.87;100.00
5879;BME280;2965;42.640;23.370;2023-05-16T05:04:23;93903.03;;;14.95;100.00
5879;BME280;2965;42.640;23.370;2023-05-16T05:06:49;93931.25;;;15.06;100.00
5879;BME280;2965;42.640;23.370;2023-05-16T05:09:14;93913.13;;;14.98;100.00
5879;BME280;2965;42.640;23.370;2023-05-16T05:11:40;93924.00;;;15.01;100.00
5879;BME280;2965;42.640;23.370;2023-05-16T05:14:05;93933.66;;;15.07;100.00
5879;BME280;2965;42.640;23.370;2023-05-16T05:16:30;93922.06;;;15.08;100.00
5879;BME280;2965;42.640;23.370;2023-05-16T05:18:57;93928.59;;;15.06;100.00
5879;BME280;2965;42.640;23.370;2023-05-16T05:21:22;93912.69;;;15.01;100.00
5879;BME280;2965;42.640;23.370;2023-05-16T05:23:49;93924.34;;;15.05;100.00
5879;BME280;2965;42.640;23.370;2023-05-16T05:26:15;93933.28;;;15.04;100.00
5879;BME280;2965;42.640;23.370;2023-05-16T05:28:40;93936.41;;;15.12;100.00
5879;BME280;2965;42.640;23.370;2023-05-16T05:31:05;93933.81;;;15.24;100.00
5879;BME280;2965;42.640;23.370;2023-05-16T05:33:32;93921.06;;;15.21;100.00
5879;BME280;2965;42.640;23.370;2023-05-16T05:35:57;93915.94;;;15.26;100.00
5879;BME280;2965;42.640;23.370;2023-05-16T05:38:23;93909.25;;;15.12;100.00
5879;BME280;2965;42.640;23.370;2023-05-16T05:40:48;93900.78;;;15.10;100.00
5879;BME280;2965;42.640;23.370;2023-05-16T05:43:14;93916.84;;;15.20;100.00
5879;BME280;2965;42.640;23.370;2023-05-16T05:45:40;93913.88;;;15.28;100.00
5879;BME280;2965;42.640;23.370;2023-05-16T05:48:05;93910.09;;;15.24;100.00
5879;BME280;2965;42.640;23.370;2023-05-16T05:50:31;93911.03;;;15.30;100.00
5879;BME280;2965;42.640;23.370;2023-05-16T05:52:56;93907.09;;;15.21;100.00
5879;BME280;2965;42.640;23.370;2023-05-16T05:55:22;93912.28;;;15.27;100.00
5879;BME280;2965;42.640;23.370;2023-05-16T05:57:47;93921.47;;;15.36;100.00
5879;BME280;2965;42.640;23.370;2023-05-16T09:31:33;93931.72;;;18.25;100.00
5879;BME280;2965;42.640;23.370;2023-05-16T09:34:03;93939.19;;;18.28;100.00
5879;BME280;2965;42.640;23.370;2023-05-16T09:36:31;93933.63;;;18.30;100.00
5879;BME280;2965;42.640;23.370;2023-05-16T09:38:57;93927.94;;;18.38;100.00
5879;BME280;2965;42.640;23.370;2023-05-16T09:41:22;93936.41;;;18.40;100.00
5879;BME280;2965;42.640;23.370;2023-05-16T09:43:48;93945.41;;;18.39;100.00
5879;BME280;2965;42.640;23.370;2023-05-16T09:51:25;93935.78;;;18.55;100.00
5879;BME280;2965;42.640;23.370;2023-05-16T09:53:50;93939.31;;;18.60;100.00
5879;BME280;2965;42.640;23.370;2023-05-16T09:56:16;93939.00;;;18.57;100.00
5879;BME280;2965;42.640;23.370;2023-05-16T09:58:43;93934.81;;;18.61;100.00
5879;BME280;2965;42.640;23.370;2023-05-16T10:01:10;93924.81;;;18.68;100.00
5879;BME280;2965;42.640;23.370;2023-05-16T10:03:37;93922.19;;;18.68;100.00
5879;BME280;2965;42.640;23.370;2023-05-16T10:06:04;93936.06;;;18.75;100.00
5879;BME280;2965;42.640;23.370;2023-05-16T10:08:34;93943.09;;;18.86;100.00
5879;BME280;2965;42.640;23.370;2023-05-16T10:11:02;93948.03;;;19.00;100.00
5879;BME280;2965;42.640;23.370;2023-05-16T10:13:29;93940.50;;;18.92;100.00
5879;BME280;2965;42.640;23.370;2023-05-16T10:15:57;93937.91;;;18.97;100.00
5879;BME280;2965;42.640;23.370;2023-05-16T10:18:29;93945.44;;;19.05;100.00
5879;BME280;2965;42.640;23.370;2023-05-16T10:20:56;93945.91;;;19.02;100.00
5879;BME280;2965;42.640;23.370;2023-05-16T10:23:24;93949.72;;;19.11;100.00
5879;BME280;2965;42.640;23.370;2023-05-16T10:25:50;93936.13;;;19.29;100.00
5879;BME280;2965;42.640;23.370;2023-05-16T10:28:16;93942.31;;;19.40;100.00
5879;BME280;2965;42.640;23.370;2023-05-16T10:30:43;93941.69;;;19.60;100.00
5879;BME280;2965;42.640;23.370;2023-05-16T10:33:13;93941.81;;;19.70;100.00
5879;BME280;2965;42.640;23.370;2023-05-16T10:35:39;93934.59;;;19.65;100.00
5879;BME280;2965;42.640;23.370;2023-05-16T10:38:06;93929.41;;;19.49;100.00
5879;BME280;2965;42.640;23.370;2023-05-16T10:40:33;93934.25;;;19.57;100.00
5879;BME280;2965;42.640;23.370;2023-05-16T10:43:02;93924.28;;;19.69;100.00
5879;BME280;2965;42.640;23.370;2023-05-16T10:45:28;93912.16;;;19.78;100.00
5879;BME280;2965;42.640;23.370;2023-05-16T10:47:59;93900.28;;;19.91;100.00
5879;BME280;2965;42.640;23.370;2023-05-16T10:50:43;93904.88;;;20.01;100.00
5879;BME280;2965;42.640;23.370;2023-05-16T10:53:21;93909.22;;;20.17;100.00
5879;BME280;2965;42.640;23.370;2023-05-16T10:58:40;93904.56;;;20.45;100.00
5879;BME280;2965;42.640;23.370;2023-05-16T11:01:23;93904.81;;;20.38;100.00
5879;BME280;2965;42.640;23.370;2023-05-16T11:03:59;93915.81;;;20.52;100.00
5879;BME280;2965;42.640;23.370;2023-05-16T11:06:29;93915.81;;;20.52;100.00
5879;BME280;2965;42.640;23.370;2023-05-16T11:14:40;93913.53;;;20.23;100.00
5879;BME280;2965;42.640;23.370;2023-05-16T11:17:22;93907.56;;;20.06;100.00
5879;BME280;2965;42.640;23.370;2023-05-16T11:19:56;93904.91;;;20.06;100.00
5879;BME280;2965;42.640;23.370;2023-05-16T11:22:26;93899.09;;;20.14;100.00
5879;BME280;2965;42.640;23.370;2023-05-16T11:25:05;93911.38;;;20.20;100.00
5879;BME280;2965;42.640;23.370;2023-05-16T11:27:36;93921.44;;;20.18;100.00
5879;BME280;2965;42.640;23.370;2023-05-16T11:32:35;93903.44;;;20.30;100.00
5879;BME280;2965;42.640;23.370;2023-05-16T11:35:01;93912.47;;;20.29;100.00
5879;BME280;2965;42.640;23.370;2023-05-16T11:37:26;93894.69;;;20.30;100.00
5879;BME280;2965;42.640;23.370;2023-05-16T11:39:52;93913.59;;;20.44;100.00
5879;BME280;2965;42.640;23.370;2023-05-16T11:42:18;93920.03;;;20.48;100.00
5879;BME280;2965;42.640;23.370;2023-05-16T11:44:45;93928.03;;;20.53;100.00
5879;BME280;2965;42.640;23.370;2023-05-16T11:47:10;93909.34;;;20.42;100.00
5879;BME280;2965;42.640;23.370;2023-05-16T11:49:36;93911.22;;;20.42;100.00
5879;BME280;2965;42.640;23.370;2023-05-16T11:52:02;93931.56;;;20.69;100.00
5879;BME280;2965;42.640;23.370;2023-05-16T11:54:28;93921.75;;;20.74;100.00
5879;BME280;2965;42.640;23.370;2023-05-16T11:56:54;93913.78;;;20.84;100.00
5879;BME280;2965;42.640;23.370;2023-05-16T11:59:20;93914.38;;;21.07;100.00
5879;BME280;2965;42.640;23.370;2023-05-16T12:01:46;93909.16;;;21.32;100.00
5879;BME280;2965;42.640;23.370;2023-05-16T12:04:15;93900.66;;;21.51;100.00
5879;BME280;2965;42.640;23.370;2023-05-16T12:06:42;93892.69;;;21.66;100.00
5879;BME280;2965;42.640;23.370;2023-05-16T12:09:13;93892.16;;;21.79;100.00
5879;BME280;2965;42.640;23.370;2023-05-16T12:11:41;93886.25;;;22.03;100.00
5879;BME280;2965;42.640;23.370;2023-05-16T12:14:07;93892.59;;;22.37;100.00
5879;BME280;2965;42.640;23.370;2023-05-16T12:16:34;93909.59;;;22.52;98.74
5879;BME280;2965;42.640;23.370;2023-05-16T12:19:04;93904.22;;;22.67;100.00
5879;BME280;2965;42.640;23.370;2023-05-16T12:21:31;93892.41;;;22.83;97.16
5879;BME280;2965;42.640;23.370;2023-05-16T12:23:57;93903.56;;;22.96;93.45
5879;BME280;2965;42.640;23.370;2023-05-16T12:26:31;93890.53;;;22.84;97.28
5879;BME280;2965;42.640;23.370;2023-05-16T12:29:01;93891.91;;;22.76;94.62
5879;BME280;2965;42.640;23.370;2023-05-16T12:31:36;93878.63;;;22.66;91.91
5879;BME280;2965;42.640;23.370;2023-05-16T12:34:02;93880.25;;;22.57;98.94
5879;BME280;2965;42.640;23.370;2023-05-16T12:36:31;93883.00;;;22.41;99.13
5879;BME280;2965;42.640;23.370;2023-05-16T12:41:41;93875.63;;;21.82;100.00
5879;BME280;2965;42.640;23.370;2023-05-16T12:44:15;93885.50;;;21.72;100.00
5879;BME280;2965;42.640;23.370;2023-05-16T12:46:49;93885.22;;;21.63;100.00
5879;BME280;2965;42.640;23.370;2023-05-16T12:49:21;93882.03;;;21.46;100.00
5879;BME280;2965;42.640;23.370;2023-05-16T12:51:52;93887.34;;;21.35;100.00
5879;BME280;2965;42.640;23.370;2023-05-16T12:54:18;93883.03;;;21.29;100.00
5879;BME280;2965;42.640;23.370;2023-05-16T12:56:44;93888.34;;;21.19;100.00
5879;BME280;2965;42.640;23.370;2023-05-16T12:59:10;93887.84;;;21.12;100.00
5879;BME280;2965;42.640;23.370;2023-05-16T13:01:42;93881.44;;;21.13;100.00
5879;BME280;2965;42.640;23.370;2023-05-16T13:04:09;93880.38;;;21.04;100.00
5879;BME280;2965;42.640;23.370;2023-05-16T13:06:40;93896.84;;;21.01;100.00
5879;BME280;2965;42.640;23.370;2023-05-16T13:09:06;93895.19;;;20.79;100.00
5879;BME280;2965;42.640;23.370;2023-05-16T13:11:32;93893.56;;;20.73;100.00
5879;BME280;2965;42.640;23.370;2023-05-16T13:13:57;93888.50;;;20.72;100.00
5879;BME280;2965;42.640;23.370;2023-05-16T13:16:23;93879.00;;;20.86;100.00
5879;BME280;2965;42.640;23.370;2023-05-16T13:18:48;93881.91;;;20.84;100.00
5879;BME280;2965;42.640;23.370;2023-05-16T13:21:13;93879.00;;;20.86;100.00
5879;BME280;2965;42.640;23.370;2023-05-16T13:23:39;93868.38;;;20.86;100.00
5879;BME280;2965;42.640;23.370;2023-05-16T13:26:04;93871.28;;;20.84;100.00
5879;BME280;2965;42.640;23.370;2023-05-16T13:28:30;93890.91;;;20.73;100.00
5879;BME280;2965;42.640;23.370;2023-05-16T13:30:56;93893.50;;;20.58;100.00
5879;BME280;2965;42.640;23.370;2023-05-16T13:33:22;93891.13;;;20.56;100.00
5879;BME280;2965;42.640;23.370;2023-05-16T13:35:48;93890.31;;;20.56;100.00
5879;BME280;2965;42.640;23.370;2023-05-16T13:38:15;93899.22;;;20.34;100.00
5879;BME280;2965;42.640;23.370;2023-05-16T13:40:40;93879.59;;;20.40;100.00
5879;BME280;2965;42.640;23.370;2023-05-16T13:43:17;93885.63;;;20.26;100.00
5879;BME280;2965;42.640;23.370;2023-05-16T13:45:44;93875.25;;;20.19;100.00
5879;BME280;2965;42.640;23.370;2023-05-16T13:48:10;93882.16;;;20.20;100.00
5879;BME280;2965;42.640;23.370;2023-05-16T13:50:37;93886.91;;;20.18;100.00
5879;BME280;2965;42.640;23.370;2023-05-16T13:53:06;93862.47;;;20.11;100.00
5879;BME280;2965;42.640;23.370;2023-05-16T13:55:32;93903.50;;;19.93;100.00
5879;BME280;2965;42.640;23.370;2023-05-16T13:58:00;93903.03;;;20.01;100.00
5879;BME280;2965;42.640;23.370;2023-05-16T14:00:28;93899.03;;;19.99;100.00
5879;BME280;2965;42.640;23.370;2023-05-16T14:02:54;93901.22;;;20.12;100.00
5879;BME280;2965;42.640;23.370;2023-05-16T14:05:20;93904.31;;;19.94;100.00
5879;BME280;2965;42.640;23.370;2023-05-16T14:07:46;93917.59;;;19.99;100.00
5879;BME280;2965;42.640;23.370;2023-05-16T14:10:12;93911.38;;;20.20;100.00
5879;BME280;2965;42.640;23.370;2023-05-16T14:12:56;93890.81;;;20.05;100.00
5879;BME280;2965;42.640;23.370;2023-05-16T14:15:21;93896.72;;;20.12;100.00
5879;BME280;2965;42.640;23.370;2023-05-16T14:17:46;93896.97;;;20.06;100.00
5879;BME280;2965;42.640;23.370;2023-05-16T14:20:13;93897.28;;;20.14;100.00
5879;BME280;2965;42.640;23.370;2023-05-16T14:22:39;93904.47;;;20.19;100.00
5879;BME280;2965;42.640;23.370;2023-05-16T14:25:05;93897.97;;;20.00;100.00
5879;BME280;2965;42.640;23.370;2023-05-16T14:27:31;93902.28;;;20.06;100.00
5879;BME280;2965;42.640;23.370;2023-05-16T14:29:57;93906.97;;;19.94;100.00
5879;BME280;2965;42.640;23.370;2023-05-16T14:32:23;93907.50;;;19.96;100.00
5879;BME280;2965;42.640;23.370;2023-05-16T14:34:53;93923.84;;;19.82;100.00
5879;BME280;2965;42.640;23.370;2023-05-16T14:37:20;93929.25;;;19.93;100.00
5879;BME280;2965;42.640;23.370;2023-05-16T14:39:46;93932.50;;;20.05;100.00
5879;BME280;2965;42.640;23.370;2023-05-16T14:42:13;93939.97;;;20.08;100.00
5879;BME280;2965;42.640;23.370;2023-05-16T14:44:39;93942.03;;;20.01;100.00
5879;BME280;2965;42.640;23.370;2023-05-16T14:47:04;93941.22;;;19.63;100.00
5879;BME280;2965;42.640;23.370;2023-05-16T14:49:30;93947.63;;;19.67;100.00
5879;BME280;2965;42.640;23.370;2023-05-16T14:51:56;93945.50;;;19.69;100.00
5879;BME280;2965;42.640;23.370;2023-05-16T14:54:21;93964.34;;;19.68;100.00
5879;BME280;2965;42.640;23.370;2023-05-16T14:56:47;93958.19;;;19.62;100.00
5879;BME280;2965;42.640;23.370;2023-05-16T14:59:12;93949.72;;;19.65;100.00
5879;BME280;2965;42.640;23.370;2023-05-16T15:01:38;93936.38;;;19.60;100.00
5879;BME280;2965;42.640;23.370;2023-05-16T15:04:03;93931.91;;;19.60;100.00
5879;BME280;2965;42.640;23.370;2023-05-16T15:06:29;93929.19;;;19.55;100.00
5879;BME280;2965;42.640;23.370;2023-05-16T15:08:55;93917.28;;;19.58;100.00
5879;BME280;2965;42.640;23.370;2023-05-16T15:11:20;93910.38;;;19.57;100.00
5879;BME280;2965;42.640;23.370;2023-05-16T15:13:46;93899.19;;;19.50;100.00
5879;BME280;2965;42.640;23.370;2023-05-16T15:16:12;93886.97;;;19.49;100.00
5879;BME280;2965;42.640;23.370;2023-05-16T15:18:38;93872.94;;;19.21;100.00
5879;BME280;2965;42.640;23.370;2023-05-16T15:21:05;93833.00;;;19.01;100.00
5879;BME280;2965;42.640;23.370;2023-05-16T15:23:30;93812.72;;;18.84;100.00
5879;BME280;2965;42.640;23.370;2023-05-16T15:25:56;93803.22;;;18.88;100.00
5879;BME280;2965;42.640;23.370;2023-05-16T15:28:23;93804.31;;;18.93;100.00
5879;BME280;2965;42.640;23.370;2023-05-16T15:30:49;93799.28;;;18.91;100.00
5879;BME280;2965;42.640;23.370;2023-05-16T15:33:15;93800.94;;;18.70;100.00
5879;BME280;2965;42.640;23.370;2023-05-16T15:35:40;93806.13;;;18.60;100.00
5879;BME280;2965;42.640;23.370;2023-05-16T15:38:06;93811.09;;;18.56;100.00
5879;BME280;2965;42.640;23.370;2023-05-16T16:00:47;93785.69;;;18.55;100.00
5879;BME280;2965;42.640;23.370;2023-05-16T16:03:12;93802.84;;;18.53;100.00
5879;BME280;2965;42.640;23.370;2023-05-16T16:05:38;93814.28;;;18.58;100.00
5879;BME280;2965;42.640;23.370;2023-05-16T16:08:03;93810.53;;;18.76;100.00
5879;BME280;2965;42.640;23.370;2023-05-16T16:10:29;93795.28;;;18.88;100.00
5879;BME280;2965;42.640;23.370;2023-05-16T16:15:24;93807.03;;;18.49;100.00
5879;BME280;2965;42.640;23.370;2023-05-16T16:17:49;93824.69;;;18.65;100.00
5879;BME280;2965;42.640;23.370;2023-05-16T16:20:15;93837.91;;;18.60;100.00
5879;BME280;2965;42.640;23.370;2023-05-16T16:22:41;93840.34;;;18.45;100.00
5879;BME280;2965;42.640;23.370;2023-05-16T16:25:06;93829.28;;;18.48;100.00
5879;BME280;2965;42.640;23.370;2023-05-16T16:27:31;93817.50;;;18.60;100.00
5879;BME280;2965;42.640;23.370;2023-05-16T16:29:57;93812.06;;;18.72;100.00
5879;BME280;2965;42.640;23.370;2023-05-16T16:32:22;93796.44;;;18.71;100.00
5879;BME280;2965;42.640;23.370;2023-05-16T16:34:48;93763.75;;;18.60;100.00
5879;BME280;2965;42.640;23.370;2023-05-16T16:37:13;93751.81;;;18.62;100.00
5879;BME280;2965;42.640;23.370;2023-05-16T16:39:39;93777.19;;;18.31;100.00
5879;BME280;2965;42.640;23.370;2023-05-16T16:42:05;93781.19;;;18.07;100.00
5879;BME280;2965;42.640;23.370;2023-05-16T16:44:31;93770.47;;;17.97;100.00
5879;BME280;2965;42.640;23.370;2023-05-16T16:46:56;93747.72;;;18.23;100.00
5879;BME280;2965;42.640;23.370;2023-05-16T16:49:21;93726.47;;;18.39;100.00
5879;BME280;2965;42.640;23.370;2023-05-16T16:51:47;93740.09;;;18.26;100.00
5879;BME280;2965;42.640;23.370;2023-05-16T16:54:14;93748.63;;;18.06;100.00
5879;BME280;2965;42.640;23.370;2023-05-16T16:56:39;93740.19;;;17.87;100.00
5879;BME280;2965;42.640;23.370;2023-05-16T16:59:05;93719.88;;;17.71;100.00
5879;BME280;2965;42.640;23.370;2023-05-16T17:01:30;93699.88;;;17.58;100.00
5879;BME280;2965;42.640;23.370;2023-05-16T17:03:57;93689.31;;;17.58;100.00
5879;BME280;2965;42.640;23.370;2023-05-16T17:06:22;93695.75;;;17.46;100.00
5879;BME280;2965;42.640;23.370;2023-05-16T17:08:48;93699.63;;;17.38;100.00
5879;BME280;2965;42.640;23.370;2023-05-16T17:11:13;93691.94;;;17.36;100.00
5879;BME280;2965;42.640;23.370;2023-05-16T17:13:47;93675.34;;;17.41;100.00
5879;BME280;2965;42.640;23.370;2023-05-16T17:16:13;93667.91;;;17.38;100.00
5879;BME280;2965;42.640;23.370;2023-05-16T17:18:38;93664.88;;;17.29;100.00
5879;BME280;2965;42.640;23.370;2023-05-16T17:21:05;93674.84;;;17.22;100.00
5879;BME280;2965;42.640;23.370;2023-05-16T17:23:31;93676.91;;;17.20;100.00
5879;BME280;2965;42.640;23.370;2023-05-16T17:25:59;93658.38;;;17.15;100.00
5879;BME280;2965;42.640;23.370;2023-05-16T17:28:25;93636.13;;;17.11;100.00
5879;BME280;2965;42.640;23.370;2023-05-16T17:30:50;93644.94;;;17.00;100.00
5879;BME280;2965;42.640;23.370;2023-05-16T17:33:17;93663.94;;;16.97;100.00
5879;BME280;2965;42.640;23.370;2023-05-16T17:35:43;93676.03;;;16.93;100.00
5879;BME280;2965;42.640;23.370;2023-05-16T17:38:08;93697.00;;;16.82;100.00
5879;BME280;2965;42.640;23.370;2023-05-16T17:40:34;93699.41;;;16.84;100.00
5879;BME280;2965;42.640;23.370;2023-05-16T17:42:59;93694.50;;;16.76;100.00
5879;BME280;2965;42.640;23.370;2023-05-16T17:45:25;93705.47;;;16.84;100.00
5879;BME280;2965;42.640;23.370;2023-05-16T17:47:50;93723.41;;;16.82;100.00
5879;BME280;2965;42.640;23.370;2023-05-16T17:50:16;93722.13;;;16.85;100.00
5879;BME280;2965;42.640;23.370;2023-05-16T17:52:43;93724.50;;;16.86;100.00
5879;BME280;2965;42.640;23.370;2023-05-16T17:55:08;93723.00;;;16.90;100.00
5879;BME280;2965;42.640;23.370;2023-05-16T17:57:34;93734.59;;;16.89;100.00
5879;BME280;2965;42.640;23.370;2023-05-16T18:00:00;93724.50;;;16.86;100.00
5879;BME280;2965;42.640;23.370;2023-05-16T18:02:25;93730.84;;;16.85;100.00
5879;BME280;2965;42.640;23.370;2023-05-16T18:04:51;93741.31;;;16.80;100.00
5879;BME280;2965;42.640;23.370;2023-05-16T18:07:17;93737.34;;;16.78;100.00
5879;BME280;2965;42.640;23.370;2023-05-16T18:09:42;93716.09;;;16.73;100.00
5879;BME280;2965;42.640;23.370;2023-05-16T18:12:08;93712.03;;;16.65;100.00
5879;BME280;2965;42.640;23.370;2023-05-16T18:14:34;93705.63;;;16.61;100.00
5879;BME280;2965;42.640;23.370;2023-05-16T18:16:59;93684.97;;;16.58;100.00
5879;BME280;2965;42.640;23.370;2023-05-16T18:19:25;93665.44;;;16.59;100.00
5879;BME280;2965;42.640;23.370;2023-05-16T18:21:50;93678.63;;;16.59;100.00
5879;BME280;2965;42.640;23.370;2023-05-16T18:24:15;93699.84;;;16.64;100.00
5879;BME280;2965;42.640;23.370;2023-05-16T18:26:41;93697.91;;;16.59;100.00
5879;BME280;2965;42.640;23.370;2023-05-16T18:29:08;93686.72;;;16.52;100.00
5879;BME280;2965;42.640;23.370;2023-05-16T18:31:36;93693.34;;;16.55;100.00
5879;BME280;2965;42.640;23.370;2023-05-16T18:34:02;93685.28;;;16.45;100.00
5879;BME280;2965;42.640;23.370;2023-05-16T18:36:28;93662.31;;;16.28;100.00
5879;BME280;2965;42.640;23.370;2023-05-16T18:38:53;93655.81;;;16.19;100.00
5879;BME280;2965;42.640;23.370;2023-05-16T18:41:20;93669.00;;;16.19;100.00
5879;BME280;2965;42.640;23.370;2023-05-16T18:43:46;93669.41;;;16.28;100.00
5879;BME280;2965;42.640;23.370;2023-05-16T18:46:11;93676.06;;;16.30;100.00
5879;BME280;2965;42.640;23.370;2023-05-16T18:48:37;93663.03;;;16.24;100.00
5879;BME280;2965;42.640;23.370;2023-05-16T18:51:02;93660.78;;;16.32;100.00
5879;BME280;2965;42.640;23.370;2023-05-16T18:53:27;93671.75;;;16.41;100.00
5879;BME280;2965;42.640;23.370;2023-05-16T18:55:53;93676.16;;;16.35;100.00
5879;BME280;2965;42.640;23.370;2023-05-16T18:58:18;93662.97;;;16.35;100.00
5879;BME280;2965;42.640;23.370;2023-05-16T19:00:44;93654.38;;;16.28;100.00
5879;BME280;2965;42.640;23.370;2023-05-16T19:03:10;93654.22;;;16.18;100.00
5879;BME280;2965;42.640;23.370;2023-05-16T19:05:37;93655.81;;;16.19;100.00
5879;BME280;2965;42.640;23.370;2023-05-16T19:08:02;93657.53;;;16.25;100.00
5879;BME280;2965;42.640;23.370;2023-05-16T19:10:28;93665.75;;;16.12;100.00
5879;BME280;2965;42.640;23.370;2023-05-16T19:12:53;93675.41;;;16.23;100.00
5879;BME280;2965;42.640;23.370;2023-05-16T19:15:19;93667.81;;;16.10;100.00
5879;BME280;2965;42.640;23.370;2023-05-16T19:17:44;93686.22;;;16.22;100.00
5879;BME280;2965;42.640;23.370;2023-05-16T19:20:10;93689.28;;;16.30;100.00
5879;BME280;2965;42.640;23.370;2023-05-16T19:22:36;93681.91;;;16.32;100.00
5879;BME280;2965;42.640;23.370;2023-05-16T19:25:02;93684.94;;;16.24;100.00
5879;BME280;2965;42.640;23.370;2023-05-16T19:27:27;93684.16;;;16.40;100.00
5879;BME280;2965;42.640;23.370;2023-05-16T19:29:53;93683.50;;;16.33;100.00
5879;BME280;2965;42.640;23.370;2023-05-16T19:32:19;93688.78;;;16.33;100.00
5879;BME280;2965;42.640;23.370;2023-05-16T19:34:44;93688.47;;;16.47;100.00
5879;BME280;2965;42.640;23.370;2023-05-16T19:37:10;93695.19;;;16.37;100.00
5879;BME280;2965;42.640;23.370;2023-05-16T19:39:35;93680.00;;;16.45;100.00
5879;BME280;2965;42.640;23.370;2023-05-16T19:42:01;93679.53;;;16.48;100.00
5879;BME280;2965;42.640;23.370;2023-05-16T19:44:26;93680.16;;;16.55;100.00
5879;BME280;2965;42.640;23.370;2023-05-16T19:46:52;93669.91;;;16.58;100.00
5879;BME280;2965;42.640;23.370;2023-05-16T19:49:18;93683.69;;;16.60;100.00
5879;BME280;2965;42.640;23.370;2023-05-16T19:51:43;93681.78;;;16.56;100.00
5879;BME280;2965;42.640;23.370;2023-05-16T19:54:09;93679.22;;;16.61;100.00
5879;BME280;2965;42.640;23.370;2023-05-16T19:56:34;93673.28;;;16.37;100.00
5879;BME280;2965;42.640;23.370;2023-05-16T19:58:59;93684.81;;;16.48;100.00
5879;BME280;2965;42.640;23.370;2023-05-16T20:01:25;93688.06;;;16.55;100.00
5879;BME280;2965;42.640;23.370;2023-05-16T20:03:50;93689.59;;;16.51;100.00
5879;BME280;2965;42.640;23.370;2023-05-16T20:06:15;93688.31;;;16.53;100.00
5879;BME280;2965;42.640;23.370;2023-05-16T20:08:41;93690.25;;;16.58;100.00
5879;BME280;2965;42.640;23.370;2023-05-16T20:11:06;93700.81;;;16.58;100.00
5879;BME280;2965;42.640;23.370;2023-05-16T20:13:31;93704.00;;;16.60;100.00
5879;BME280;2965;42.640;23.370;2023-05-16T20:15:57;93689.03;;;16.49;100.00
5879;BME280;2965;42.640;23.370;2023-05-16T20:18:22;93686.00;;;16.57;100.00
5879;BME280;2965;42.640;23.370;2023-05-16T20:20:48;93697.13;;;16.59;100.00
5879;BME280;2965;42.640;23.370;2023-05-16T20:23:13;93702.47;;;16.64;100.00
5879;BME280;2965;42.640;23.370;2023-05-16T20:25:38;93704.16;;;16.70;100.00
5879;BME280;2965;42.640;23.370;2023-05-16T20:28:04;93699.38;;;16.67;100.00
5879;BME280;2965;42.640;23.370;2023-05-16T20:30:29;93688.25;;;16.65;100.00
5879;BME280;2965;42.640;23.370;2023-05-16T20:32:57;93690.66;;;16.67;100.00
5879;BME280;2965;42.640;23.370;2023-05-16T20:35:23;93698.41;;;16.56;100.00
5879;BME280;2965;42.640;23.370;2023-05-16T20:37:48;93702.31;;;16.54;100.00
5879;BME280;2965;42.640;23.370;2023-05-16T20:40:14;93702.09;;;16.38;100.00
5879;BME280;2965;42.640;23.370;2023-05-16T20:42:40;93706.16;;;16.29;100.00
5879;BME280;2965;42.640;23.370;2023-05-16T20:45:07;93707.66;;;16.25;100.00
5879;BME280;2965;42.640;23.370;2023-05-16T20:47:33;93721.72;;;16.31;100.00
5879;BME280;2965;42.640;23.370;2023-05-16T20:49:58;93721.09;;;16.40;100.00
5879;BME280;2965;42.640;23.370;2023-05-16T20:52:24;93716.94;;;16.45;100.00
5879;BME280;2965;42.640;23.370;2023-05-16T20:54:51;93701.59;;;16.42;100.00
5879;BME280;2965;42.640;23.370;2023-05-16T20:57:17;93695.19;;;16.37;100.00
5879;BME280;2965;42.640;23.370;2023-05-16T20:59:42;93701.59;;;16.25;100.00
